sensor_id;sensor_type;location;lat;lon;timestamp;pressure;altitude;pressure_sealevel;temperature;humidity
75759;BME280;64371;47.566;19.086;2022-10-16T00:00:42;100857.69;;;23.44;41.08
75759;BME280;64371;47.566;19.086;2022-10-16T00:03:46;100843.09;;;23.45;40.94
75759;BME280;64371;47.566;19.086;2022-10-16T00:06:48;100855.84;;;23.48;40.93
75759;BME280;64371;47.566;19.086;2022-10-16T00:09:50;100847.78;;;23.48;41.06
75759;BME280;64371;47.566;19.086;2022-10-16T00:12:53;100853.59;;;23.50;41.18
75759;BME280;64371;47.566;19.086;2022-10-16T00:15:56;100849.78;;;23.51;41.07
75759;BME280;64371;47.566;19.086;2022-10-16T00:18:59;100847.09;;;23.51;40.91
75759;BME280;64371;47.566;19.086;2022-10-16T00:22:01;100859.38;;;23.52;40.91
75759;BME280;64371;47.566;19.086;2022-10-16T00:25:03;100862.06;;;23.52;40.79
75759;BME280;64371;47.566;19.086;2022-10-16T00:28:06;100862.81;;;23.49;41.23
75759;BME280;64371;47.566;19.086;2022-10-16T00:31:10;100874.78;;;23.52;40.95
75759;BME280;64371;47.566;19.086;2022-10-16T00:34:13;100875.91;;;23.51;41.19
75759;BME280;64371;47.566;19.086;2022-10-16T00:37:15;100879.28;;;23.48;41.15
75759;BME280;64371;47.566;19.086;2022-10-16T00:40:17;100873.91;;;23.48;41.08
75759;BME280;64371;47.566;19.086;2022-10-16T00:43:41;100866.03;;;23.39;40.94
75759;BME280;64371;47.566;19.086;2022-10-16T00:46:44;100869.59;;;23.43;41.37
75759;BME280;64371;47.566;19.086;2022-10-16T00:49:47;100879.66;;;23.46;41.39
75759;BME280;64371;47.566;19.086;2022-10-16T00:52:51;100880.78;;;23.45;41.37
75759;BME280;64371;47.566;19.086;2022-10-16T00:55:54;100888.06;;;23.45;41.04
75759;BME280;64371;47.566;19.086;2022-10-16T00:58:58;100880.34;;;23.43;41.08
75759;BME280;64371;47.566;19.086;2022-10-16T01:02:03;100888.41;;;23.43;41.44
75759;BME280;64371;47.566;19.086;2022-10-16T01:05:05;100892.22;;;23.42;41.53
75759;BME280;64371;47.566;19.086;2022-10-16T01:08:09;100890.31;;;23.43;41.41
75759;BME280;64371;47.566;19.086;2022-10-16T01:11:38;100886.09;;;23.42;41.18
75759;BME280;64371;47.566;19.086;2022-10-16T01:15:05;100879.13;;;23.41;41.24
75759;BME280;64371;47.566;19.086;2022-10-16T01:21:47;100891.81;;;23.40;41.54
75759;BME280;64371;47.566;19.086;2022-10-16T01:24:55;100894.44;;;23.37;41.62
75759;BME280;64371;47.566;19.086;2022-10-16T01:28:01;100902.94;;;23.39;41.17
75759;BME280;64371;47.566;19.086;2022-10-16T01:31:04;100900.59;;;23.37;41.58
75759;BME280;64371;47.566;19.086;2022-10-16T01:34:21;100892.41;;;23.34;41.49
75759;BME280;64371;47.566;19.086;2022-10-16T01:40:38;100900.06;;;23.32;41.48
75759;BME280;64371;47.566;19.086;2022-10-16T01:43:45;100913.16;;;23.33;41.48
75759;BME280;64371;47.566;19.086;2022-10-16T01:46:50;100913.50;;;23.32;41.72
75759;BME280;64371;47.566;19.086;2022-10-16T01:49:55;100920.38;;;23.29;41.40
75759;BME280;64371;47.566;19.086;2022-10-16T01:52:59;100909.97;;;23.28;41.46
75759;BME280;64371;47.566;19.086;2022-10-16T01:56:08;100927.66;;;23.29;41.64
75759;BME280;64371;47.566;19.086;2022-10-16T01:59:17;100925.31;;;23.27;41.69
75759;BME280;64371;47.566;19.086;2022-10-16T02:02:21;100925.66;;;23.26;41.52
75759;BME280;64371;47.566;19.086;2022-10-16T02:05:30;100926.81;;;23.25;41.53
75759;BME280;64371;47.566;19.086;2022-10-16T02:08:33;100934.09;;;23.24;41.59
75759;BME280;64371;47.566;19.086;2022-10-16T02:11:35;100936.00;;;23.24;41.54
75759;BME280;64371;47.566;19.086;2022-10-16T02:14:39;100930.97;;;23.22;41.56
75759;BME280;64371;47.566;19.086;2022-10-16T02:17:41;100940.94;;;23.22;41.93
75759;BME280;64371;47.566;19.086;2022-10-16T02:20:59;100923.22;;;23.21;41.69
75759;BME280;64371;47.566;19.086;2022-10-16T02:24:09;100924.38;;;23.20;41.67
75759;BME280;64371;47.566;19.086;2022-10-16T02:31:01;100925.84;;;23.17;41.68
75759;BME280;64371;47.566;19.086;2022-10-16T02:34:06;100930.81;;;23.15;41.71
75759;BME280;64371;47.566;19.086;2022-10-16T02:37:08;100933.50;;;23.15;41.84
75759;BME280;64371;47.566;19.086;2022-10-16T02:40:13;100934.63;;;23.14;41.73
75759;BME280;64371;47.566;19.086;2022-10-16T02:43:15;100946.94;;;23.15;41.63
75759;BME280;64371;47.566;19.086;2022-10-16T02:46:18;100939.22;;;23.13;41.62
75759;BME280;64371;47.566;19.086;2022-10-16T02:49:20;100940.00;;;23.14;41.85
75759;BME280;64371;47.566;19.086;2022-10-16T02:52:23;100938.44;;;23.13;41.66
75759;BME280;64371;47.566;19.086;2022-10-16T02:55:26;100930.72;;;23.11;41.77
75759;BME280;64371;47.566;19.086;2022-10-16T02:58:29;100941.47;;;23.11;41.79
75759;BME280;64371;47.566;19.086;2022-10-16T03:01:31;100944.94;;;23.12;41.91
75759;BME280;64371;47.566;19.086;2022-10-16T03:04:38;100946.84;;;23.11;41.95
75759;BME280;64371;47.566;19.086;2022-10-16T03:07:40;100953.38;;;23.10;41.72
75759;BME280;64371;47.566;19.086;2022-10-16T03:10:42;100951.81;;;23.09;41.95
75759;BME280;64371;47.566;19.086;2022-10-16T03:13:44;100959.88;;;23.09;41.95
75759;BME280;64371;47.566;19.086;2022-10-16T03:16:46;100958.28;;;23.08;41.93
75759;BME280;64371;47.566;19.086;2022-10-16T03:19:49;100957.88;;;23.06;41.78
75759;BME280;64371;47.566;19.086;2022-10-16T03:22:51;100959.44;;;23.07;41.58
75759;BME280;64371;47.566;19.086;2022-10-16T03:25:53;100962.91;;;23.08;41.80
75759;BME280;64371;47.566;19.086;2022-10-16T03:28:55;100972.88;;;23.07;41.91
75759;BME280;64371;47.566;19.086;2022-10-16T03:31:59;100965.94;;;23.06;41.69
75759;BME280;64371;47.566;19.086;2022-10-16T03:35:02;100975.91;;;23.06;41.69
75759;BME280;64371;47.566;19.086;2022-10-16T03:38:04;100981.28;;;23.06;41.76
75759;BME280;64371;47.566;19.086;2022-10-16T03:41:06;100976.69;;;23.06;41.68
75759;BME280;64371;47.566;19.086;2022-10-16T03:44:09;100987.13;;;23.08;41.69
75759;BME280;64371;47.566;19.086;2022-10-16T03:47:11;100981.75;;;23.08;41.76
75759;BME280;64371;47.566;19.086;2022-10-16T03:50:14;100981.75;;;23.08;41.69
75759;BME280;64371;47.566;19.086;2022-10-16T03:53:16;100988.66;;;23.09;41.68
75759;BME280;64371;47.566;19.086;2022-10-16T03:56:18;100988.34;;;23.10;41.86
75759;BME280;64371;47.566;19.086;2022-10-16T03:59:20;100981.03;;;23.11;41.93
75759;BME280;64371;47.566;19.086;2022-10-16T04:02:22;100983.72;;;23.11;41.59
75759;BME280;64371;47.566;19.086;2022-10-16T04:05:25;100986.88;;;23.13;41.90
75759;BME280;64371;47.566;19.086;2022-10-16T04:08:27;100991.88;;;23.15;41.71
75759;BME280;64371;47.566;19.086;2022-10-16T04:11:29;100995.00;;;23.17;41.83
75759;BME280;64371;47.566;19.086;2022-10-16T04:14:37;100994.22;;;23.16;41.46
75759;BME280;64371;47.566;19.086;2022-10-16T04:17:39;100986.94;;;23.17;41.86
75759;BME280;64371;47.566;19.086;2022-10-16T04:20:42;100996.31;;;23.23;41.65
75759;BME280;64371;47.566;19.086;2022-10-16T04:23:44;101003.59;;;23.22;41.72
75759;BME280;64371;47.566;19.086;2022-10-16T04:26:46;100994.50;;;23.27;41.65
75759;BME280;64371;47.566;19.086;2022-10-16T04:29:48;101000.31;;;23.29;41.61
75759;BME280;64371;47.566;19.086;2022-10-16T04:32:52;101000.72;;;23.31;41.35
75759;BME280;64371;47.566;19.086;2022-10-16T04:35:58;100997.97;;;23.27;41.35
75759;BME280;64371;47.566;19.086;2022-10-16T04:39:01;101011.25;;;23.36;41.34
75759;BME280;64371;47.566;19.086;2022-10-16T04:42:03;101012.84;;;23.37;41.59
75759;BME280;64371;47.566;19.086;2022-10-16T04:45:06;101013.25;;;23.39;41.30
75759;BME280;64371;47.566;19.086;2022-10-16T04:48:15;101015.25;;;23.42;41.44
75759;BME280;64371;47.566;19.086;2022-10-16T04:51:17;101009.53;;;23.43;41.17
75759;BME280;64371;47.566;19.086;2022-10-16T04:54:20;101014.22;;;23.46;41.41
75759;BME280;64371;47.566;19.086;2022-10-16T04:57:22;101015.75;;;23.47;41.26
75759;BME280;64371;47.566;19.086;2022-10-16T05:00:25;101017.34;;;23.48;41.46
75759;BME280;64371;47.566;19.086;2022-10-16T05:03:27;101023.50;;;23.49;40.84
75759;BME280;64371;47.566;19.086;2022-10-16T05:06:35;101031.56;;;23.49;41.14
75759;BME280;64371;47.566;19.086;2022-10-16T05:09:37;101026.19;;;23.49;40.94
75759;BME280;64371;47.566;19.086;2022-10-16T05:12:39;101022.72;;;23.48;41.27
75759;BME280;64371;47.566;19.086;2022-10-16T05:15:42;101030.00;;;23.48;41.03
75759;BME280;64371;47.566;19.086;2022-10-16T05:18:44;101028.47;;;23.47;41.08
75759;BME280;64371;47.566;19.086;2022-10-16T05:21:46;101032.25;;;23.46;41.24
75759;BME280;64371;47.566;19.086;2022-10-16T05:24:48;101040.34;;;23.46;41.39
75759;BME280;64371;47.566;19.086;2022-10-16T05:27:51;101044.16;;;23.45;41.05
75759;BME280;64371;47.566;19.086;2022-10-16T05:30:53;101058.38;;;23.45;41.27
75759;BME280;64371;47.566;19.086;2022-10-16T05:33:59;101050.69;;;23.44;41.41
75759;BME280;64371;47.566;19.086;2022-10-16T05:37:02;101048.06;;;23.47;40.86
75759;BME280;64371;47.566;19.086;2022-10-16T05:40:04;101059.72;;;23.51;40.99
75759;BME280;64371;47.566;19.086;2022-10-16T05:43:07;101055.19;;;23.55;41.18
75759;BME280;64371;47.566;19.086;2022-10-16T05:46:09;101068.81;;;23.62;40.81
75759;BME280;64371;47.566;19.086;2022-10-16T05:49:11;101059.34;;;23.68;41.07
75759;BME280;64371;47.566;19.086;2022-10-16T05:52:13;101058.28;;;23.73;40.62
75759;BME280;64371;47.566;19.086;2022-10-16T05:55:15;101063.84;;;23.80;40.57
75759;BME280;64371;47.566;19.086;2022-10-16T05:58:17;101065.47;;;23.85;40.45
75759;BME280;64371;47.566;19.086;2022-10-16T06:01:20;101069.91;;;23.93;40.49
75759;BME280;64371;47.566;19.086;2022-10-16T06:04:26;101083.88;;;23.98;40.43
75759;BME280;64371;47.566;19.086;2022-10-16T06:07:28;101081.69;;;24.04;40.31
75759;BME280;64371;47.566;19.086;2022-10-16T06:10:30;101090.31;;;24.09;40.19
75759;BME280;64371;47.566;19.086;2022-10-16T06:13:33;101090.84;;;24.15;40.14
75759;BME280;64371;47.566;19.086;2022-10-16T06:16:36;101091.31;;;24.20;39.63
75759;BME280;64371;47.566;19.086;2022-10-16T06:19:39;101091.84;;;24.26;39.55
75759;BME280;64371;47.566;19.086;2022-10-16T06:22:41;101095.38;;;24.30;39.44
75759;BME280;64371;47.566;19.086;2022-10-16T06:25:43;101094.31;;;24.34;39.76
75759;BME280;64371;47.566;19.086;2022-10-16T06:28:46;101099.44;;;24.39;39.70
75759;BME280;64371;47.566;19.086;2022-10-16T06:31:48;101106.44;;;24.44;39.52
75759;BME280;64371;47.566;19.086;2022-10-16T06:34:51;101106.97;;;24.50;39.62
75759;BME280;64371;47.566;19.086;2022-10-16T06:37:53;101113.97;;;24.54;39.01
75759;BME280;64371;47.566;19.086;2022-10-16T06:40:55;101119.09;;;24.59;39.30
75759;BME280;64371;47.566;19.086;2022-10-16T06:43:57;101132.28;;;24.64;39.13
75759;BME280;64371;47.566;19.086;2022-10-16T06:46:59;101134.28;;;24.67;39.12
75759;BME280;64371;47.566;19.086;2022-10-16T06:50:02;101145.91;;;24.71;39.23
75759;BME280;64371;47.566;19.086;2022-10-16T06:53:05;101144.09;;;24.75;38.78
75759;BME280;64371;47.566;19.086;2022-10-16T06:56:10;101140.38;;;24.80;38.92
75759;BME280;64371;47.566;19.086;2022-10-16T06:59:12;101142.34;;;24.83;38.90
75759;BME280;64371;47.566;19.086;2022-10-16T07:02:15;101142.41;;;24.86;38.59
75759;BME280;64371;47.566;19.086;2022-10-16T07:05:17;101152.50;;;24.89;38.70
75759;BME280;64371;47.566;19.086;2022-10-16T07:08:19;101160.66;;;24.93;38.43
75759;BME280;64371;47.566;19.086;2022-10-16T07:11:23;101160.72;;;24.96;38.35
75759;BME280;64371;47.566;19.086;2022-10-16T07:14:25;101160.38;;;24.98;38.60
75759;BME280;64371;47.566;19.086;2022-10-16T07:17:27;101177.41;;;25.02;38.64
75759;BME280;64371;47.566;19.086;2022-10-16T07:20:29;101173.19;;;25.04;38.70
75759;BME280;64371;47.566;19.086;2022-10-16T07:23:32;101177.91;;;25.08;38.37
75759;BME280;64371;47.566;19.086;2022-10-16T07:26:35;101175.63;;;25.10;38.49
75759;BME280;64371;47.566;19.086;2022-10-16T07:29:38;101189.56;;;25.12;38.39
75759;BME280;64371;47.566;19.086;2022-10-16T07:32:40;101191.88;;;25.13;38.26
75759;BME280;64371;47.566;19.086;2022-10-16T07:35:52;101196.59;;;25.16;38.55
75759;BME280;64371;47.566;19.086;2022-10-16T07:38:55;101197.00;;;25.18;38.30
75759;BME280;64371;47.566;19.086;2022-10-16T07:42:01;101203.59;;;25.21;38.32
75759;BME280;64371;47.566;19.086;2022-10-16T07:45:03;101205.16;;;25.22;38.55
75759;BME280;64371;47.566;19.086;2022-10-16T07:48:06;101214.44;;;25.24;38.20
75759;BME280;64371;47.566;19.086;2022-10-16T07:51:09;101200.63;;;25.26;38.10
75759;BME280;64371;47.566;19.086;2022-10-16T07:54:11;101201.41;;;25.26;38.10
75759;BME280;64371;47.566;19.086;2022-10-16T07:57:13;101201.41;;;25.26;38.34
75759;BME280;64371;47.566;19.086;2022-10-16T08:00:21;101207.22;;;25.28;38.37
75759;BME280;64371;47.566;19.086;2022-10-16T08:03:24;101201.81;;;25.28;38.40
75759;BME280;64371;47.566;19.086;2022-10-16T08:06:26;101208.00;;;25.29;38.02
75759;BME280;64371;47.566;19.086;2022-10-16T08:09:29;101212.25;;;25.30;38.40
75759;BME280;64371;47.566;19.086;2022-10-16T08:12:31;101218.44;;;25.30;38.34
75759;BME280;64371;47.566;19.086;2022-10-16T08:15:36;101224.63;;;25.31;38.38
75759;BME280;64371;47.566;19.086;2022-10-16T08:18:40;101230.03;;;25.31;38.47
75759;BME280;64371;47.566;19.086;2022-10-16T08:21:42;101224.25;;;25.32;38.25
75759;BME280;64371;47.566;19.086;2022-10-16T08:24:44;101224.25;;;25.32;38.31
75759;BME280;64371;47.566;19.086;2022-10-16T08:27:47;101229.28;;;25.34;38.40
75759;BME280;64371;47.566;19.086;2022-10-16T08:30:49;101219.97;;;25.31;38.33
75759;BME280;64371;47.566;19.086;2022-10-16T08:33:51;101235.47;;;25.34;38.21
75759;BME280;64371;47.566;19.086;2022-10-16T08:36:54;101247.44;;;25.33;38.20
75759;BME280;64371;47.566;19.086;2022-10-16T08:39:57;101240.88;;;25.34;38.14
75759;BME280;64371;47.566;19.086;2022-10-16T08:46:44;101245.50;;;25.34;38.29
75759;BME280;64371;47.566;19.086;2022-10-16T08:49:58;101248.56;;;25.32;38.31
75759;BME280;64371;47.566;19.086;2022-10-16T08:53:03;101243.16;;;25.32;38.34
75759;BME280;64371;47.566;19.086;2022-10-16T08:56:06;101250.47;;;25.32;38.24
75759;BME280;64371;47.566;19.086;2022-10-16T08:59:10;101246.22;;;25.31;38.58
75759;BME280;64371;47.566;19.086;2022-10-16T09:02:26;101243.53;;;25.31;38.36
75759;BME280;64371;47.566;19.086;2022-10-16T09:05:54;101253.91;;;25.29;38.59
75759;BME280;64371;47.566;19.086;2022-10-16T09:15:37;101253.44;;;25.27;38.75
75759;BME280;64371;47.566;19.086;2022-10-16T09:22:10;101238.75;;;25.24;38.61
75759;BME280;64371;47.566;19.086;2022-10-16T09:25:16;101240.22;;;25.22;38.73
75759;BME280;64371;47.566;19.086;2022-10-16T09:28:19;101236.31;;;25.19;38.75
75759;BME280;64371;47.566;19.086;2022-10-16T09:31:22;101243.66;;;25.19;38.56
75759;BME280;64371;47.566;19.086;2022-10-16T09:37:49;101253.25;;;25.16;38.72
75759;BME280;64371;47.566;19.086;2022-10-16T09:40:53;101250.13;;;25.14;39.20
75759;BME280;64371;47.566;19.086;2022-10-16T09:44:05;101253.53;;;25.11;38.97
75759;BME280;64371;47.566;19.086;2022-10-16T09:47:17;101253.13;;;25.09;38.73
75759;BME280;64371;47.566;19.086;2022-10-16T09:50:22;101254.22;;;25.08;38.71
75759;BME280;64371;47.566;19.086;2022-10-16T09:53:37;101265.41;;;25.07;38.96
75759;BME280;64371;47.566;19.086;2022-10-16T09:56:40;101260.34;;;25.05;38.68
75759;BME280;64371;47.566;19.086;2022-10-16T09:59:55;101268.78;;;25.03;39.04
75759;BME280;64371;47.566;19.086;2022-10-16T10:02:58;101266.47;;;25.02;38.81
75759;BME280;64371;47.566;19.086;2022-10-16T10:06:15;101266.00;;;25.00;38.97
75759;BME280;64371;47.566;19.086;2022-10-16T10:09:33;101257.16;;;24.99;39.08
75759;BME280;64371;47.566;19.086;2022-10-16T10:12:38;101254.00;;;24.97;39.17
75759;BME280;64371;47.566;19.086;2022-10-16T10:15:41;101249.34;;;24.94;39.06
75759;BME280;64371;47.566;19.086;2022-10-16T10:18:43;101245.06;;;24.93;39.02
75759;BME280;64371;47.566;19.086;2022-10-16T10:21:46;101233.06;;;24.91;39.02
75759;BME280;64371;47.566;19.086;2022-10-16T10:25:14;101238.81;;;24.89;38.94
75759;BME280;64371;47.566;19.086;2022-10-16T10:31:32;101236.03;;;24.86;38.97
75759;BME280;64371;47.566;19.086;2022-10-16T10:42:00;101235.88;;;24.79;38.96
75759;BME280;64371;47.566;19.086;2022-10-16T10:45:16;101235.78;;;24.75;39.32
75759;BME280;64371;47.566;19.086;2022-10-16T10:49:16;101231.88;;;24.73;39.25
75759;BME280;64371;47.566;19.086;2022-10-16T11:02:23;101237.47;;;24.64;39.38
75759;BME280;64371;47.566;19.086;2022-10-16T11:08:41;101230.53;;;24.63;39.32
75759;BME280;64371;47.566;19.086;2022-10-16T11:11:47;101216.94;;;24.60;39.46
75759;BME280;64371;47.566;19.086;2022-10-16T11:15:25;101217.72;;;24.60;39.22
75759;BME280;64371;47.566;19.086;2022-10-16T11:21:56;101211.47;;;24.56;39.09
75759;BME280;64371;47.566;19.086;2022-10-16T11:25:28;101218.69;;;24.52;39.65
75759;BME280;64371;47.566;19.086;2022-10-16T11:28:39;101212.53;;;24.52;39.31
75759;BME280;64371;47.566;19.086;2022-10-16T11:31:50;101209.81;;;24.52;38.97
75759;BME280;64371;47.566;19.086;2022-10-16T11:35:02;101204.78;;;24.50;39.20
75759;BME280;64371;47.566;19.086;2022-10-16T11:42:16;101202.00;;;24.47;39.35
75759;BME280;64371;47.566;19.086;2022-10-16T11:49:31;101201.59;;;24.45;39.27
75759;BME280;64371;47.566;19.086;2022-10-16T11:52:44;101203.50;;;24.44;39.65
75759;BME280;64371;47.566;19.086;2022-10-16T11:55:50;101203.84;;;24.42;39.45
75759;BME280;64371;47.566;19.086;2022-10-16T11:59:42;101191.06;;;24.39;39.32
75759;BME280;64371;47.566;19.086;2022-10-16T12:05:50;101197.59;;;24.38;39.53
75759;BME280;64371;47.566;19.086;2022-10-16T12:08:54;101194.91;;;24.38;39.22
75759;BME280;64371;47.566;19.086;2022-10-16T12:11:59;101192.56;;;24.37;39.08
75759;BME280;64371;47.566;19.086;2022-10-16T12:15:18;101193.69;;;24.36;39.35
75759;BME280;64371;47.566;19.086;2022-10-16T12:18:45;101189.44;;;24.35;39.67
75759;BME280;64371;47.566;19.086;2022-10-16T12:21:48;101190.56;;;24.34;39.32
75759;BME280;64371;47.566;19.086;2022-10-16T12:24:52;101181.72;;;24.33;39.49
75759;BME280;64371;47.566;19.086;2022-10-16T12:27:56;101184.72;;;24.32;39.38
75759;BME280;64371;47.566;19.086;2022-10-16T12:31:02;101184.41;;;24.33;39.43
75759;BME280;64371;47.566;19.086;2022-10-16T12:34:05;101184.72;;;24.32;39.18
75759;BME280;64371;47.566;19.086;2022-10-16T12:37:11;101182.03;;;24.32;39.59
75759;BME280;64371;47.566;19.086;2022-10-16T12:40:28;101177.78;;;24.31;39.41
75759;BME280;64371;47.566;19.086;2022-10-16T12:46:37;101184.31;;;24.30;39.50
75759;BME280;64371;47.566;19.086;2022-10-16T12:49:49;101186.56;;;24.28;39.58
75759;BME280;64371;47.566;19.086;2022-10-16T12:52:51;101193.13;;;24.27;39.36
75759;BME280;64371;47.566;19.086;2022-10-16T13:09:37;101197.97;;;24.21;39.56
75759;BME280;64371;47.566;19.086;2022-10-16T13:13:05;101201.78;;;24.20;39.55
75759;BME280;64371;47.566;19.086;2022-10-16T13:19:32;101201.72;;;24.17;39.59
75759;BME280;64371;47.566;19.086;2022-10-16T13:22:51;101196.34;;;24.17;39.38
75759;BME280;64371;47.566;19.086;2022-10-16T13:26:17;101195.13;;;24.14;39.66
75759;BME280;64371;47.566;19.086;2022-10-16T13:29:23;101196.25;;;24.13;39.65
75759;BME280;64371;47.566;19.086;2022-10-16T13:32:26;101202.00;;;24.12;39.67
75759;BME280;64371;47.566;19.086;2022-10-16T13:35:31;101198.88;;;24.10;39.38
75759;BME280;64371;47.566;19.086;2022-10-16T13:38:35;101203.09;;;24.11;39.81
75759;BME280;64371;47.566;19.086;2022-10-16T13:41:40;101201.56;;;24.10;39.54
75759;BME280;64371;47.566;19.086;2022-10-16T13:44:45;101205.38;;;24.09;39.74
75759;BME280;64371;47.566;19.086;2022-10-16T13:47:49;101201.88;;;24.08;39.97
75759;BME280;64371;47.566;19.086;2022-10-16T13:51:13;101200.34;;;24.07;39.82
75759;BME280;64371;47.566;19.086;2022-10-16T13:54:15;101204.94;;;24.07;39.99
75759;BME280;64371;47.566;19.086;2022-10-16T13:57:22;101207.63;;;24.07;39.59
75759;BME280;64371;47.566;19.086;2022-10-16T14:00:28;101213.03;;;24.07;39.46
75759;BME280;64371;47.566;19.086;2022-10-16T14:03:34;101213.31;;;24.05;39.56
75759;BME280;64371;47.566;19.086;2022-10-16T14:06:41;101207.50;;;24.03;39.81
75759;BME280;64371;47.566;19.086;2022-10-16T14:09:48;101199.78;;;24.02;39.89
75759;BME280;64371;47.566;19.086;2022-10-16T14:12:56;101200.16;;;24.00;40.08
75759;BME280;64371;47.566;19.086;2022-10-16T14:16:05;101205.97;;;24.02;39.98
75759;BME280;64371;47.566;19.086;2022-10-16T14:19:28;101205.19;;;24.02;39.78
75759;BME280;64371;47.566;19.086;2022-10-16T14:22:34;101193.63;;;24.01;40.02
75759;BME280;64371;47.566;19.086;2022-10-16T14:25:36;101197.44;;;24.00;40.13
75759;BME280;64371;47.566;19.086;2022-10-16T14:28:39;101200.91;;;24.01;39.85
75759;BME280;64371;47.566;19.086;2022-10-16T14:31:54;101206.66;;;23.99;40.01
75759;BME280;64371;47.566;19.086;2022-10-16T14:34:56;101207.75;;;23.98;39.99
75759;BME280;64371;47.566;19.086;2022-10-16T14:38:00;101211.59;;;23.97;40.13
75759;BME280;64371;47.566;19.086;2022-10-16T14:41:03;101214.31;;;23.97;40.14
75759;BME280;64371;47.566;19.086;2022-10-16T14:44:06;101215.41;;;23.96;39.92
75759;BME280;64371;47.566;19.086;2022-10-16T14:47:17;101211.19;;;23.95;39.89
75759;BME280;64371;47.566;19.086;2022-10-16T14:50:24;101215.00;;;23.94;40.15
75759;BME280;64371;47.566;19.086;2022-10-16T14:53:26;101208.81;;;23.94;40.21
75759;BME280;64371;47.566;19.086;2022-10-16T14:59:51;101215.34;;;23.93;40.08
75759;BME280;64371;47.566;19.086;2022-10-16T15:02:53;101214.91;;;23.91;40.11
75759;BME280;64371;47.566;19.086;2022-10-16T15:05:55;101209.53;;;23.91;40.10
75759;BME280;64371;47.566;19.086;2022-10-16T15:08:57;101209.06;;;23.89;39.97
75759;BME280;64371;47.566;19.086;2022-10-16T15:12:00;101216.41;;;23.88;39.77
75759;BME280;64371;47.566;19.086;2022-10-16T15:18:16;101230.97;;;23.87;40.07
75759;BME280;64371;47.566;19.086;2022-10-16T15:21:28;101229.41;;;23.86;39.91
75759;BME280;64371;47.566;19.086;2022-10-16T15:24:30;101243.22;;;23.85;40.01
75759;BME280;64371;47.566;19.086;2022-10-16T15:27:33;101238.94;;;23.84;40.13
75759;BME280;64371;47.566;19.086;2022-10-16T15:30:42;101242.00;;;23.82;40.08
75759;BME280;64371;47.566;19.086;2022-10-16T15:33:50;101230.00;;;23.80;40.22
75759;BME280;64371;47.566;19.086;2022-10-16T15:36:55;101233.50;;;23.80;40.20
75759;BME280;64371;47.566;19.086;2022-10-16T15:39:59;101233.50;;;23.80;40.17
75759;BME280;64371;47.566;19.086;2022-10-16T15:43:02;101240.78;;;23.80;40.27
75759;BME280;64371;47.566;19.086;2022-10-16T15:46:06;101241.91;;;23.78;40.36
75759;BME280;64371;47.566;19.086;2022-10-16T15:49:09;101253.47;;;23.79;40.29
75759;BME280;64371;47.566;19.086;2022-10-16T15:52:11;101253.03;;;23.77;40.02
75759;BME280;64371;47.566;19.086;2022-10-16T15:55:14;101254.94;;;23.76;40.38
75759;BME280;64371;47.566;19.086;2022-10-16T15:58:16;101254.94;;;23.76;40.47
75759;BME280;64371;47.566;19.086;2022-10-16T16:01:19;101259.56;;;23.76;40.28
75759;BME280;64371;47.566;19.086;2022-10-16T16:04:22;101266.84;;;23.75;40.58
75759;BME280;64371;47.566;19.086;2022-10-16T16:07:44;101267.97;;;23.74;40.51
75759;BME280;64371;47.566;19.086;2022-10-16T16:11:07;101272.13;;;23.72;40.58
75759;BME280;64371;47.566;19.086;2022-10-16T16:14:12;101283.69;;;23.72;40.63
75759;BME280;64371;47.566;19.086;2022-10-16T16:17:15;101283.69;;;23.72;40.67
75759;BME280;64371;47.566;19.086;2022-10-16T16:20:17;101285.59;;;23.72;40.74
75759;BME280;64371;47.566;19.086;2022-10-16T16:23:19;101297.50;;;23.71;40.59
75759;BME280;64371;47.566;19.086;2022-10-16T16:26:24;101305.56;;;23.71;40.53
75759;BME280;64371;47.566;19.086;2022-10-16T16:29:28;101294.34;;;23.69;40.72
75759;BME280;64371;47.566;19.086;2022-10-16T16:32:30;101308.59;;;23.69;40.62
75759;BME280;64371;47.566;19.086;2022-10-16T16:35:32;101305.47;;;23.67;40.44
75759;BME280;64371;47.566;19.086;2022-10-16T16:38:34;101310.41;;;23.65;40.65
75759;BME280;64371;47.566;19.086;2022-10-16T16:41:37;101321.63;;;23.67;40.84
75759;BME280;64371;47.566;19.086;2022-10-16T16:44:39;101328.91;;;23.67;40.53
75759;BME280;64371;47.566;19.086;2022-10-16T16:47:41;101330.06;;;23.66;40.41
75759;BME280;64371;47.566;19.086;2022-10-16T16:50:44;101328.81;;;23.63;40.45
75759;BME280;64371;47.566;19.086;2022-10-16T16:53:51;101325.34;;;23.63;40.64
75759;BME280;64371;47.566;19.086;2022-10-16T16:56:54;101332.63;;;23.62;40.79
75759;BME280;64371;47.566;19.086;2022-10-16T16:59:56;101334.09;;;23.60;40.68
75759;BME280;64371;47.566;19.086;2022-10-16T17:02:58;101343.75;;;23.61;40.63
75759;BME280;64371;47.566;19.086;2022-10-16T17:06:04;101339.47;;;23.60;40.77
75759;BME280;64371;47.566;19.086;2022-10-16T17:09:07;101352.16;;;23.59;40.85
75759;BME280;64371;47.566;19.086;2022-10-16T17:12:11;101357.53;;;23.59;40.88
75759;BME280;64371;47.566;19.086;2022-10-16T17:15:13;101361.38;;;23.58;40.72
75759;BME280;64371;47.566;19.086;2022-10-16T17:18:16;101357.88;;;23.58;40.51
75759;BME280;64371;47.566;19.086;2022-10-16T17:21:19;101361.69;;;23.57;40.62
75759;BME280;64371;47.566;19.086;2022-10-16T17:24:21;101371.69;;;23.56;40.69
75759;BME280;64371;47.566;19.086;2022-10-16T17:27:24;101372.47;;;23.57;41.01
75759;BME280;64371;47.566;19.086;2022-10-16T17:30:26;101373.59;;;23.56;40.64